Time;durP1;ratioP1;P1;durP2;ratioP2;P2;SDS_P1;SDS_P2;PMS_P1;PMS_P2;Temp;Humidity;BMP_temperature;BMP_pressure;BME280_temperature;BME280_humidity;BME280_pressure;Samples;Min_cycle;Max_cycle;Signal;HPM_P1;HPM_P2
2021/09/04 00:01:11;;;;;;;12.80;9.53;;;17.00;99.90;;;;;;5038273;28;20191;-83
2021/09/04 00:03:37;;;;;;;10.43;9.13;;;17.10;99.90;;;;;;5038357;28;20161;-84
2021/09/04 00:06:03;;;;;;;9.77;8.50;;;17.10;99.90;;;;;;5040041;28;20406;-84
2021/09/04 00:08:30;;;;;;;10.53;8.10;;;17.10;99.90;;;;;;5021637;28;20201;-84
2021/09/04 00:10:56;;;;;;;9.57;8.67;;;17.00;99.90;;;;;;5038187;28;20248;-84
2021/09/04 00:13:22;;;;;;;10.43;9.40;;;17.10;99.90;;;;;;5046652;28;20403;-85
2021/09/04 00:15:47;;;;;;;10.27;9.10;;;17.10;99.90;;;;;;5043837;28;20232;-85
2021/09/04 00:18:13;;;;;;;12.83;8.47;;;17.10;99.90;;;;;;5021359;28;20259;-85
2021/09/04 00:20:39;;;;;;;10.50;9.40;;;17.10;99.90;;;;;;5039472;28;20161;-85
2021/09/04 00:23:05;;;;;;;15.40;9.80;;;17.00;99.90;;;;;;5039643;28;20165;-85
2021/09/04 00:25:32;;;;;;;9.63;8.27;;;16.90;99.90;;;;;;5038996;28;20165;-85
2021/09/04 00:27:59;;;;;;;9.37;8.53;;;16.80;99.90;;;;;;5039064;28;20513;-85
2021/09/04 00:30:25;;;;;;;9.90;9.00;;;16.90;99.90;;;;;;5038598;28;20462;-85
2021/09/04 00:32:50;;;;;;;11.73;8.73;;;16.80;99.90;;;;;;5038989;28;20782;-85
2021/09/04 00:35:17;;;;;;;10.97;8.20;;;16.80;99.90;;;;;;5038607;28;20602;-84
2021/09/04 00:37:43;;;;;;;9.20;8.40;;;16.70;99.90;;;;;;5021836;28;20188;-84
2021/09/04 00:40:10;;;;;;;10.80;9.40;;;16.60;99.90;;;;;;5039035;28;20723;-84
2021/09/04 00:42:35;;;;;;;14.23;8.43;;;16.60;99.90;;;;;;5021518;28;20340;-84
2021/09/04 00:45:02;;;;;;;10.23;8.67;;;15.90;99.90;;;;;;5021200;28;20431;-85
2021/09/04 00:47:27;;;;;;;13.50;8.33;;;15.60;99.90;;;;;;5021391;28;20169;-85
2021/09/04 00:49:53;;;;;;;11.63;8.07;;;15.20;99.90;;;;;;5039958;28;20527;-84
2021/09/04 00:52:22;;;;;;;10.50;9.40;;;15.10;99.90;;;;;;5039528;28;20196;-84
2021/09/04 00:54:47;;;;;;;11.30;9.63;;;15.00;99.90;;;;;;5023673;28;20196;-85
2021/09/04 00:57:13;;;;;;;10.70;9.63;;;14.80;99.90;;;;;;5027829;28;20830;-84
2021/09/04 00:59:39;;;;;;;12.23;9.57;;;14.60;99.90;;;;;;5049931;28;20211;-84
2021/09/04 01:02:05;;;;;;;9.30;8.53;;;14.90;99.90;;;;;;5031179;28;20404;-85
2021/09/04 01:04:31;;;;;;;10.10;9.20;;;14.80;99.90;;;;;;5040406;28;20218;-85
2021/09/04 01:06:57;;;;;;;17.77;9.40;;;14.80;99.90;;;;;;5040983;28;20255;-85
2021/09/04 01:09:23;;;;;;;9.47;8.10;;;14.80;99.90;;;;;;5038732;28;20535;-85
2021/09/04 01:11:51;;;;;;;11.67;10.23;;;14.80;99.90;;;;;;5037978;28;20656;-85
2021/09/04 01:14:17;;;;;;;14.70;9.70;;;14.70;99.90;;;;;;5038281;28;20554;-85
2021/09/04 01:16:44;;;;;;;12.40;8.67;;;14.70;99.90;;;;;;5038288;28;20450;-84
2021/09/04 01:19:10;;;;;;;11.30;9.07;;;14.60;99.90;;;;;;5038248;28;20169;-85
2021/09/04 01:21:37;;;;;;;11.40;7.60;;;14.60;99.90;;;;;;5038013;28;20450;-84
2021/09/04 01:24:06;;;;;;;11.93;8.63;;;14.50;99.90;;;;;;5038689;28;20774;-84
2021/09/04 01:26:33;;;;;;;10.93;8.63;;;14.30;99.90;;;;;;5040114;28;20761;-84
2021/09/04 01:28:59;;;;;;;10.57;8.43;;;14.30;99.90;;;;;;5025252;28;20504;-85
2021/09/04 01:31:27;;;;;;;12.33;8.70;;;14.30;99.90;;;;;;5027765;28;20411;-85
2021/09/04 01:33:54;;;;;;;9.63;8.73;;;14.30;99.90;;;;;;5058550;28;20434;-84
2021/09/04 01:36:32;;;;;;;9.70;8.80;;;14.30;99.90;;;;;;5059861;28;20413;-85
2021/09/04 01:38:59;;;;;;;9.83;8.63;;;14.10;99.90;;;;;;5026388;28;20529;-84
2021/09/04 01:41:25;;;;;;;8.63;7.50;;;14.00;99.90;;;;;;5050449;28;20407;-85
2021/09/04 01:43:51;;;;;;;8.97;7.50;;;14.00;99.90;;;;;;5042055;28;20400;-85
2021/09/04 01:46:17;;;;;;;8.17;7.20;;;13.90;99.90;;;;;;5043569;28;20406;-84
2021/09/04 01:48:43;;;;;;;8.80;7.13;;;13.80;99.90;;;;;;5043360;28;20399;-84
2021/09/04 01:51:09;;;;;;;9.30;7.33;;;13.70;99.90;;;;;;5023560;28;20400;-84
2021/09/04 01:53:35;;;;;;;9.47;8.57;;;13.70;99.90;;;;;;5041787;28;20164;-85
2021/09/04 01:56:01;;;;;;;9.60;8.03;;;13.50;99.90;;;;;;5023397;28;20757;-84
2021/09/04 01:58:26;;;;;;;10.60;6.87;;;13.50;99.90;;;;;;5022925;28;20515;-84
2021/09/04 02:00:52;;;;;;;10.00;7.67;;;13.50;99.90;;;;;;5041724;28;20160;-84
2021/09/04 02:03:18;;;;;;;9.60;7.40;;;13.60;99.90;;;;;;5041011;28;20168;-84
2021/09/04 02:05:45;;;;;;;8.40;7.23;;;13.50;99.90;;;;;;5041654;28;20161;-84
2021/09/04 02:08:11;;;;;;;9.83;8.10;;;13.60;99.90;;;;;;5041787;28;20196;-85
2021/09/04 02:10:37;;;;;;;10.10;8.20;;;13.70;99.90;;;;;;5023734;28;20426;-84
2021/09/04 02:13:03;;;;;;;10.60;8.53;;;13.80;99.90;;;;;;5041642;28;20419;-85
2021/09/04 02:15:29;;;;;;;10.73;7.93;;;13.80;99.90;;;;;;5040795;28;20811;-85
2021/09/04 02:17:55;;;;;;;10.03;8.63;;;13.80;99.90;;;;;;5041106;28;20445;-85
2021/09/04 02:20:21;;;;;;;8.53;7.50;;;13.70;99.90;;;;;;5040878;28;20930;-84
2021/09/04 02:22:47;;;;;;;9.60;8.50;;;13.70;99.90;;;;;;5023626;28;20168;-84
2021/09/04 02:25:12;;;;;;;10.50;8.83;;;13.60;99.90;;;;;;5041628;28;20520;-84
2021/09/04 02:27:38;;;;;;;10.80;7.60;;;13.70;99.90;;;;;;5056143;28;20172;-83
2021/09/04 02:30:06;;;;;;;8.80;7.90;;;13.60;99.90;;;;;;5056775;28;20165;-84
2021/09/04 02:32:32;;;;;;;10.40;8.97;;;13.60;99.90;;;;;;5034678;28;20222;-85
2021/09/04 02:34:59;;;;;;;10.10;7.97;;;13.70;99.90;;;;;;5041178;28;20396;-85
2021/09/04 02:37:24;;;;;;;10.73;9.13;;;13.70;99.90;;;;;;5040372;28;20538;-85
2021/09/04 02:39:50;;;;;;;7.90;7.10;;;13.70;99.90;;;;;;5040642;28;20497;-84
2021/09/04 02:42:16;;;;;;;8.33;6.47;;;13.60;99.90;;;;;;5041043;28;20510;-85
2021/09/04 02:44:43;;;;;;;11.27;6.70;;;13.60;99.90;;;;;;5040015;28;20400;-85
2021/09/04 02:47:09;;;;;;;9.13;7.60;;;13.70;99.90;;;;;;5041360;28;20165;-85
2021/09/04 02:49:35;;;;;;;7.67;6.97;;;13.70;99.90;;;;;;5040421;28;20777;-84
2021/09/04 02:52:00;;;;;;;10.10;7.17;;;13.80;99.90;;;;;;5040418;28;20456;-85
2021/09/04 02:54:26;;;;;;;10.50;8.73;;;13.90;99.90;;;;;;5022347;28;20187;-84
2021/09/04 02:56:52;;;;;;;13.70;9.57;;;14.20;99.90;;;;;;5039670;28;20231;-84
2021/09/04 02:59:18;;;;;;;12.30;9.03;;;14.50;99.90;;;;;;5039589;28;20161;-85
2021/09/04 03:01:44;;;;;;;8.97;8.07;;;14.70;99.90;;;;;;5039276;28;20161;-85
2021/09/04 03:04:10;;;;;;;8.77;7.97;;;14.90;99.90;;;;;;5039693;28;20403;-84
2021/09/04 03:06:35;;;;;;;8.87;8.00;;;14.90;99.90;;;;;;5040229;28;20606;-85
2021/09/04 03:09:01;;;;;;;8.93;7.87;;;15.00;99.90;;;;;;5039810;28;20196;-84
2021/09/04 03:11:27;;;;;;;7.80;7.00;;;15.10;99.90;;;;;;5039874;28;20487;-85
2021/09/04 03:13:53;;;;;;;10.93;7.83;;;15.10;99.90;;;;;;5039568;28;20220;-85
2021/09/04 03:16:19;;;;;;;8.60;7.80;;;15.10;99.90;;;;;;5039743;28;20183;-85
2021/09/04 03:18:45;;;;;;;10.13;7.30;;;15.10;99.90;;;;;;5040010;28;20165;-85
2021/09/04 03:21:11;;;;;;;11.03;8.77;;;15.10;99.90;;;;;;5040061;28;20637;-85
2021/09/04 03:23:37;;;;;;;10.80;8.83;;;15.00;99.90;;;;;;5022721;28;20422;-85
2021/09/04 03:26:04;;;;;;;10.40;9.30;;;15.10;99.90;;;;;;5040722;28;20419;-84
2021/09/04 03:28:31;;;;;;;8.20;7.40;;;15.20;99.90;;;;;;5040199;28;20182;-85
2021/09/04 03:30:57;;;;;;;11.73;7.73;;;15.20;99.90;;;;;;5040282;28;20400;-84
2021/09/04 03:33:23;;;;;;;9.17;8.20;;;15.20;99.90;;;;;;5040222;28;20740;-85
2021/09/04 03:35:49;;;;;;;10.30;7.40;;;15.20;99.90;;;;;;5039989;28;20168;-85
2021/09/04 03:38:15;;;;;;;10.73;8.63;;;15.20;99.90;;;;;;5039298;28;20443;-85
2021/09/04 03:40:42;;;;;;;8.77;7.97;;;15.20;99.90;;;;;;5043353;28;20442;-85
2021/09/04 03:43:08;;;;;;;11.33;7.77;;;15.10;99.90;;;;;;5046735;28;20396;-84
2021/09/04 03:45:35;;;;;;;12.63;8.20;;;15.20;99.90;;;;;;5048819;28;20393;-84
2021/09/04 03:48:02;;;;;;;9.57;8.23;;;15.10;99.90;;;;;;5052332;28;20475;-85
2021/09/04 03:50:28;;;;;;;9.63;8.00;;;15.10;99.90;;;;;;5027095;28;20429;-84
2021/09/04 03:52:54;;;;;;;10.30;7.87;;;15.10;99.90;;;;;;5056878;28;20399;-84
2021/09/04 03:55:19;;;;;;;8.10;7.30;;;14.90;99.90;;;;;;5056044;28;20414;-83
2021/09/04 03:57:45;;;;;;;9.30;7.67;;;14.20;99.90;;;;;;5046039;28;20333;-85
2021/09/04 04:00:11;;;;;;;12.70;8.30;;;14.10;99.90;;;;;;5040098;28;20302;-84
2021/09/04 04:02:37;;;;;;;11.13;8.33;;;13.70;99.90;;;;;;5039399;28;20164;-84
2021/09/04 04:05:04;;;;;;;7.63;6.83;;;13.40;99.90;;;;;;5040002;28;20427;-85
2021/09/04 04:07:29;;;;;;;10.83;8.50;;;13.30;99.90;;;;;;5039818;28;20459;-84
2021/09/04 04:09:55;;;;;;;9.33;7.70;;;13.20;99.90;;;;;;5007228;28;20916;-84
2021/09/04 04:12:21;;;;;;;7.57;6.83;;;13.30;99.90;;;;;;5041766;28;20196;-84
2021/09/04 04:14:47;;;;;;;9.10;6.50;;;13.20;99.90;;;;;;5040709;28;20228;-84
2021/09/04 04:17:12;;;;;;;9.13;7.20;;;13.10;99.90;;;;;;5041052;28;20593;-85
2021/09/04 04:19:38;;;;;;;8.03;6.83;;;12.90;99.90;;;;;;5048693;28;20556;-83
2021/09/04 04:22:07;;;;;;;11.00;8.10;;;12.90;99.90;;;;;;5038959;28;20168;-84
2021/09/04 04:24:33;;;;;;;11.20;6.87;;;12.70;99.90;;;;;;5038856;28;20865;-85
2021/09/04 04:27:01;;;;;;;10.00;6.80;;;12.70;99.90;;;;;;5039574;28;20196;-84
2021/09/04 04:29:28;;;;;;;12.20;7.23;;;12.70;99.90;;;;;;5038763;28;20191;-84
2021/09/04 04:32:02;;;;;;;9.53;7.00;;;12.60;99.90;;;;;;5039461;28;20418;-84
2021/09/04 04:34:29;;;;;;;8.50;6.40;;;12.60;99.90;;;;;;5023155;28;20513;-85
2021/09/04 04:37:09;;;;;;;7.50;6.70;;;12.50;99.90;;;;;;5038979;28;20447;-84
2021/09/04 04:39:35;;;;;;;8.50;7.57;;;12.60;99.90;;;;;;5018001;28;20423;-84
2021/09/04 04:42:00;;;;;;;10.50;7.37;;;12.60;99.90;;;;;;5035079;28;20450;-84
2021/09/04 04:44:26;;;;;;;7.97;7.17;;;12.40;99.90;;;;;;5039004;28;20164;-84
2021/09/04 04:46:52;;;;;;;9.07;7.90;;;12.40;99.90;;;;;;5038159;28;20165;-85
2021/09/04 04:49:19;;;;;;;8.07;7.27;;;12.30;99.90;;;;;;5038965;28;20252;-84
2021/09/04 04:51:45;;;;;;;9.73;7.30;;;12.20;99.90;;;;;;5020712;28;20228;-84
2021/09/04 04:54:10;;;;;;;10.10;7.40;;;12.30;99.90;;;;;;5021021;28;20534;-84
2021/09/04 04:56:36;;;;;;;10.60;6.60;;;12.20;99.90;;;;;;5021439;28;20165;-84
2021/09/04 04:59:02;;;;;;;7.57;6.87;;;12.20;99.90;;;;;;5021395;28;20179;-84
2021/09/04 05:01:39;;;;;;;7.23;6.50;;;12.20;99.90;;;;;;5041313;28;20164;-84
2021/09/04 05:04:07;;;;;;;8.00;7.03;;;12.30;99.90;;;;;;5044279;28;20164;-84
2021/09/04 05:06:36;;;;;;;8.63;6.50;;;12.40;99.90;;;;;;5010613;28;20419;-84
2021/09/04 05:09:05;;;;;;;8.67;7.83;;;12.40;99.90;;;;;;5020887;28;20511;-84
2021/09/04 05:11:30;;;;;;;9.70;7.77;;;12.40;99.90;;;;;;5020375;28;21043;-85
2021/09/04 05:13:56;;;;;;;9.00;6.83;;;12.30;99.90;;;;;;5020005;28;20216;-85
2021/09/04 05:16:22;;;;;;;8.20;7.37;;;12.40;99.90;;;;;;5019759;28;20166;-84
2021/09/04 05:18:48;;;;;;;9.43;7.10;;;12.40;99.90;;;;;;5020517;28;20609;-84
2021/09/04 05:21:13;;;;;;;8.40;6.93;;;12.50;99.90;;;;;;5019999;28;20204;-84
2021/09/04 05:23:39;;;;;;;14.50;7.60;;;12.50;99.90;;;;;;5019650;28;20193;-84
2021/09/04 05:26:05;;;;;;;8.43;7.43;;;12.50;99.90;;;;;;5020571;28;20173;-83
2021/09/04 05:28:31;;;;;;;9.57;7.30;;;12.50;99.90;;;;;;5019777;28;20181;-84
2021/09/04 05:30:59;;;;;;;9.77;7.43;;;12.50;99.90;;;;;;5020305;28;20631;-83
2021/09/04 05:33:26;;;;;;;10.23;8.30;;;12.30;99.90;;;;;;5003591;28;20553;-84
2021/09/04 05:35:58;;;;;;;10.23;9.23;;;12.20;99.90;;;;;;5003802;28;20410;-84
2021/09/04 05:38:23;;;;;;;14.77;9.83;;;12.20;99.90;;;;;;4981060;28;20900;-84
2021/09/04 05:40:49;;;;;;;15.50;8.63;;;12.20;99.90;;;;;;4997170;28;20413;-84
2021/09/04 05:43:15;;;;;;;11.17;9.57;;;12.30;99.90;;;;;;5000831;28;20182;-84
2021/09/04 05:45:41;;;;;;;9.77;8.77;;;12.50;99.90;;;;;;5000852;28;20224;-84
2021/09/04 05:48:08;;;;;;;12.30;8.10;;;12.50;99.90;;;;;;5001020;28;20203;-84
2021/09/04 05:50:34;;;;;;;10.00;9.00;;;12.50;99.90;;;;;;4984262;28;20186;-83
2021/09/04 05:52:59;;;;;;;12.27;8.57;;;12.70;99.90;;;;;;5000789;28;20401;-84
2021/09/04 05:55:25;;;;;;;8.50;7.60;;;12.80;99.90;;;;;;5000482;28;20158;-83
2021/09/04 05:57:52;;;;;;;13.10;7.53;;;12.90;99.90;;;;;;4983715;28;20300;-83
2021/09/04 06:00:17;;;;;;;7.50;6.73;;;12.90;99.90;;;;;;5000007;28;20626;-84
2021/09/04 06:02:43;;;;;;;10.17;8.00;;;13.10;99.90;;;;;;4999978;28;20500;-84
2021/09/04 06:05:10;;;;;;;8.03;7.23;;;13.20;99.90;;;;;;5000013;28;20452;-84
2021/09/04 06:07:35;;;;;;;7.70;6.73;;;13.40;99.90;;;;;;5000326;28;20162;-84
2021/09/04 06:10:01;;;;;;;12.33;7.53;;;13.40;99.90;;;;;;4999967;28;20441;-84
2021/09/04 06:12:27;;;;;;;10.13;7.80;;;13.50;99.90;;;;;;4999578;28;20162;-84
2021/09/04 06:14:53;;;;;;;8.47;7.63;;;13.90;99.90;;;;;;5006601;28;20239;-84
2021/09/04 06:17:19;;;;;;;9.50;8.33;;;14.10;99.90;;;;;;5041365;28;20435;-83
2021/09/04 06:19:45;;;;;;;10.47;7.90;;;14.30;99.90;;;;;;5041636;28;20157;-84
2021/09/04 06:22:10;;;;;;;9.70;8.00;;;14.60;99.90;;;;;;5023528;28;20153;-84
2021/09/04 06:24:36;;;;;;;8.97;8.03;;;14.80;99.90;;;;;;5040738;28;20164;-84
2021/09/04 06:27:02;;;;;;;9.00;7.90;;;14.90;99.90;;;;;;5041187;28;20255;-84
2021/09/04 06:29:28;;;;;;;10.13;9.13;;;15.10;99.90;;;;;;5023053;28;20177;-83
2021/09/04 06:31:55;;;;;;;8.23;7.43;;;15.10;99.90;;;;;;5040682;28;20407;-84
2021/09/04 06:34:21;;;;;;;10.07;9.03;;;15.10;99.90;;;;;;5040613;28;20212;-84
2021/09/04 06:36:46;;;;;;;14.50;9.50;;;15.10;99.90;;;;;;5018684;28;20494;-83
2021/09/04 06:39:12;;;;;;;9.20;8.30;;;15.20;99.90;;;;;;5018561;28;20200;-84
2021/09/04 06:41:38;;;;;;;11.17;8.93;;;15.20;99.90;;;;;;5018142;28;20187;-84
2021/09/04 06:44:04;;;;;;;14.60;10.60;;;15.00;99.90;;;;;;5018017;28;20187;-83
2021/09/04 06:46:32;;;;;;;12.07;9.43;;;15.00;99.90;;;;;;5002681;28;20272;-85
2021/09/04 06:48:59;;;;;;;9.80;8.80;;;14.80;99.90;;;;;;5019453;28;20157;-83
2021/09/04 06:51:25;;;;;;;11.43;10.13;;;14.80;99.90;;;;;;5002704;28;20404;-84
2021/09/04 06:53:52;;;;;;;10.90;8.67;;;14.90;99.90;;;;;;5017946;28;20403;-84
2021/09/04 06:56:17;;;;;;;11.40;9.37;;;14.90;99.90;;;;;;5018064;28;20408;-84
2021/09/04 06:58:43;;;;;;;10.30;9.27;;;14.80;99.90;;;;;;5018900;28;20532;-86
2021/09/04 07:01:09;;;;;;;12.97;10.80;;;14.80;99.90;;;;;;5019180;28;20173;-84
2021/09/04 07:03:36;;;;;;;14.87;10.20;;;14.80;99.90;;;;;;5005960;28;20169;-83
2021/09/04 07:06:03;;;;;;;11.60;9.27;;;14.70;99.90;;;;;;5033805;28;20154;-84
2021/09/04 07:08:28;;;;;;;12.50;10.43;;;14.90;99.90;;;;;;5050707;28;20454;-84
2021/09/04 07:10:54;;;;;;;12.90;9.97;;;15.10;99.90;;;;;;5054604;28;20403;-84
2021/09/04 07:13:20;;;;;;;19.90;11.73;;;15.20;99.90;;;;;;5044474;28;20196;-84
2021/09/04 07:15:56;;;;;;;11.23;9.83;;;15.30;99.90;;;;;;5027229;28;20293;-84
2021/09/04 07:18:23;;;;;;;11.03;9.17;;;15.60;99.90;;;;;;5008574;28;20444;-84
2021/09/04 07:20:50;;;;;;;13.03;9.70;;;15.60;99.90;;;;;;5040805;28;20925;-84
2021/09/04 07:23:16;;;;;;;9.50;8.10;;;15.70;99.90;;;;;;5040091;28;20822;-85
2021/09/04 07:25:42;;;;;;;13.00;9.43;;;15.80;99.90;;;;;;5039560;28;20403;-85
2021/09/04 07:28:11;;;;;;;9.90;8.93;;;15.90;99.90;;;;;;5022140;28;20407;-84
2021/09/04 07:30:37;;;;;;;11.17;9.00;;;16.20;99.90;;;;;;5040491;28;20403;-84
2021/09/04 07:33:03;;;;;;;12.07;10.67;;;16.10;99.90;;;;;;5041065;28;20399;-85
2021/09/04 07:35:29;;;;;;;12.97;10.50;;;16.00;99.90;;;;;;5040608;28;20443;-83
2021/09/04 07:37:55;;;;;;;11.53;9.73;;;16.20;99.90;;;;;;5039462;28;20435;-84
2021/09/04 07:40:21;;;;;;;9.23;8.13;;;16.40;99.90;;;;;;5039171;28;20191;-84
2021/09/04 07:42:47;;;;;;;9.33;8.23;;;16.30;99.90;;;;;;5039724;28;20395;-84
2021/09/04 07:45:13;;;;;;;11.70;8.80;;;16.50;99.90;;;;;;5039258;28;20534;-84
2021/09/04 07:47:39;;;;;;;10.33;9.33;;;16.80;99.90;;;;;;5021609;28;20232;-85
2021/09/04 07:50:43;;;;;;;9.47;8.30;;;17.10;99.90;;;;;;5041338;28;20162;-84
2021/09/04 07:53:09;;;;;;;11.57;9.70;;;17.30;99.90;;;;;;4964718;28;20198;-84
2021/09/04 07:55:35;;;;;;;10.97;9.20;;;17.30;99.90;;;;;;4978058;28;20484;-84
2021/09/04 07:58:01;;;;;;;9.60;8.03;;;17.50;99.90;;;;;;4977595;28;20288;-85
2021/09/04 08:00:27;;;;;;;11.40;8.80;;;17.60;99.90;;;;;;4978327;28;20539;-84
2021/09/04 08:02:53;;;;;;;10.90;9.30;;;17.70;99.90;;;;;;4977229;28;20224;-84
2021/09/04 08:05:18;;;;;;;9.53;8.50;;;17.80;99.90;;;;;;4961506;28;20163;-84
2021/09/04 08:07:44;;;;;;;11.27;8.60;;;17.90;99.90;;;;;;4978289;28;20185;-84
2021/09/04 08:10:10;;;;;;;9.83;8.83;;;18.00;99.90;;;;;;4977818;28;20661;-84
2021/09/04 08:12:36;;;;;;;10.80;8.93;;;18.10;99.90;;;;;;4978753;28;20518;-85
2021/09/04 08:15:02;;;;;;;11.40;9.50;;;18.00;99.90;;;;;;4977852;28;20330;-84
2021/09/04 08:17:28;;;;;;;11.50;8.77;;;18.00;99.90;;;;;;4977883;28;20356;-85
2021/09/04 08:19:54;;;;;;;12.20;8.50;;;18.20;99.90;;;;;;4961996;28;20864;-84
2021/09/04 08:22:20;;;;;;;12.60;7.80;;;18.40;99.90;;;;;;4978553;28;20639;-85
2021/09/04 08:24:46;;;;;;;8.77;7.87;;;18.50;99.90;;;;;;4961490;28;20477;-84
2021/09/04 08:27:12;;;;;;;9.50;7.77;;;18.50;99.90;;;;;;4978054;28;20166;-85
2021/09/04 08:29:38;;;;;;;11.23;8.20;;;18.60;99.90;;;;;;5007593;28;20411;-84
2021/09/04 08:32:07;;;;;;;9.20;8.40;;;18.70;99.90;;;;;;5041078;28;20617;-84
2021/09/04 08:34:34;;;;;;;11.43;8.57;;;18.70;99.90;;;;;;5041514;28;20233;-85
2021/09/04 08:36:59;;;;;;;11.47;8.20;;;18.90;99.90;;;;;;5037856;28;20435;-85
2021/09/04 08:39:25;;;;;;;9.20;8.27;;;18.80;99.90;;;;;;5039122;28;20388;-84
2021/09/04 08:41:51;;;;;;;10.40;8.30;;;18.90;99.90;;;;;;5033327;28;20164;-84
2021/09/04 08:44:17;;;;;;;12.03;9.40;;;19.20;99.90;;;;;;5044371;28;20183;-84
2021/09/04 08:46:43;;;;;;;8.73;7.83;;;19.10;99.90;;;;;;5025295;28;20410;-84
2021/09/04 08:49:09;;;;;;;10.53;8.20;;;19.10;99.90;;;;;;5025134;28;20400;-84
2021/09/04 08:51:37;;;;;;;8.70;7.90;;;19.10;99.90;;;;;;5043248;28;20467;-83
2021/09/04 08:54:03;;;;;;;11.37;7.90;;;19.20;99.90;;;;;;5043914;28;20395;-84
2021/09/04 08:56:29;;;;;;;10.07;9.07;;;19.60;99.90;;;;;;5043964;28;20530;-84
2021/09/04 08:58:55;;;;;;;7.47;6.77;;;19.80;99.90;;;;;;5026511;28;20395;-84
2021/09/04 09:01:24;;;;;;;8.97;7.93;;;20.10;99.90;;;;;;5044521;28;20407;-84
2021/09/04 09:03:52;;;;;;;9.17;8.23;;;20.50;99.90;;;;;;5027993;28;20161;-85
2021/09/04 09:06:32;;;;;;;8.33;7.53;;;20.70;99.90;;;;;;5046516;28;20410;-83
2021/09/04 09:09:12;;;;;;;8.80;6.73;;;20.90;99.90;;;;;;5033983;28;20943;-84
2021/09/04 09:11:40;;;;;;;8.37;7.50;;;21.00;99.90;;;;;;5045261;28;20414;-84
2021/09/04 09:14:05;;;;;;;8.07;7.27;;;21.30;99.90;;;;;;5042507;28;20467;-84
2021/09/04 09:16:47;;;;;;;12.70;7.60;;;21.50;99.90;;;;;;5042877;28;20395;-84
2021/09/04 09:19:13;;;;;;;8.70;7.77;;;21.60;99.90;;;;;;5027084;28;20160;-83
2021/09/04 09:21:40;;;;;;;7.33;6.63;;;21.70;99.90;;;;;;5024859;28;20460;-84
2021/09/04 09:24:15;;;;;;;8.97;7.07;;;21.90;99.90;;;;;;5043054;28;20243;-84
2021/09/04 09:26:58;;;;;;;8.07;6.50;;;22.10;99.90;;;;;;5042779;28;20406;-84
2021/09/04 09:29:32;;;;;;;7.33;6.57;;;21.80;99.90;;;;;;5042633;28;20817;-84
2021/09/04 09:32:02;;;;;;;7.90;6.90;;;22.20;99.90;;;;;;5041780;28;20400;-84
2021/09/04 09:34:30;;;;;;;7.63;6.43;;;22.50;99.90;;;;;;4980781;28;20432;-82
2021/09/04 09:36:59;;;;;;;6.97;6.27;;;22.70;99.90;;;;;;4964751;28;20489;-82
2021/09/04 09:39:32;;;;;;;9.70;5.73;;;22.80;99.90;;;;;;4981527;28;20895;-83
2021/09/04 09:41:59;;;;;;;7.60;6.80;;;23.10;99.90;;;;;;4980607;28;20934;-83
2021/09/04 09:44:28;;;;;;;8.70;6.83;;;23.20;99.90;;;;;;4981104;28;20410;-84
2021/09/04 09:46:56;;;;;;;9.77;6.37;;;23.40;99.90;;;;;;4983058;28;20407;-84
2021/09/04 09:49:36;;;;;;;7.37;5.87;;;23.50;99.90;;;;;;4984784;28;20504;-84
2021/09/04 09:52:08;;;;;;;6.30;5.70;;;23.90;99.90;;;;;;4981158;28;20401;-84
2021/09/04 09:54:38;;;;;;;7.23;6.50;;;24.20;99.90;;;;;;4965612;28;20489;-84
2021/09/04 09:57:09;;;;;;;6.50;5.90;;;23.70;99.90;;;;;;4980953;28;20477;-85
2021/09/04 09:59:35;;;;;;;6.27;5.67;;;23.00;99.90;;;;;;4965299;28;20859;-84
2021/09/04 10:02:11;;;;;;;8.90;6.47;;;23.70;99.90;;;;;;4965717;28;20812;-83
2021/09/04 10:04:39;;;;;;;7.70;5.60;;;23.70;99.90;;;;;;4976011;28;20510;-83
2021/09/04 10:07:07;;;;;;;5.20;4.70;;;24.00;99.90;;;;;;5024504;28;20410;-85
2021/09/04 10:09:37;;;;;;;5.10;4.60;;;23.90;99.90;;;;;;5041542;28;20453;-84
2021/09/04 10:12:04;;;;;;;5.20;4.70;;;23.70;99.90;;;;;;5041382;28;20495;-84
2021/09/04 10:14:30;;;;;;;7.67;5.43;;;24.10;99.90;;;;;;5020852;28;20547;-84
2021/09/04 10:16:59;;;;;;;7.20;5.10;;;24.30;99.90;;;;;;5021902;28;20450;-84
2021/09/04 10:19:28;;;;;;;7.43;5.70;;;24.50;99.90;;;;;;5021604;28;20565;-85
2021/09/04 10:22:00;;;;;;;9.77;7.57;;;24.30;99.90;;;;;;5021461;28;20404;-85
2021/09/04 10:24:52;;;;;;;5.70;5.20;;;24.30;99.90;;;;;;5023125;28;20403;-85
2021/09/04 10:27:36;;;;;;;6.10;4.97;;;24.90;99.90;;;;;;5021862;28;20528;-85
2021/09/04 10:30:34;;;;;;;7.77;5.80;;;25.50;99.90;;;;;;5020291;28;20422;-85
2021/09/04 10:33:03;;;;;;;6.50;5.90;;;25.20;99.90;;;;;;5020625;28;20400;-84
2021/09/04 10:36:03;;;;;;;6.17;5.37;;;25.50;99.90;;;;;;5022470;28;20889;-85
2021/09/04 10:38:33;;;;;;;5.83;5.33;;;24.60;99.90;;;;;;4987312;28;20909;-85
2021/09/04 10:41:18;;;;;;;5.30;4.80;;;25.70;99.90;;;;;;5025416;28;20411;-85
2021/09/04 10:43:49;;;;;;;5.40;4.90;;;26.20;99.90;;;;;;5022059;28;20415;-85
2021/09/04 10:46:19;;;;;;;5.07;4.60;;;26.80;99.90;;;;;;5024673;28;20407;-85
2021/09/04 10:48:59;;;;;;;6.03;5.27;;;26.70;99.90;;;;;;5022898;28;20494;-85
2021/09/04 10:51:46;;;;;;;5.53;5.00;;;27.30;99.90;;;;;;5021518;28;20426;-84
2021/09/04 10:54:31;;;;;;;5.50;4.87;;;28.10;99.90;;;;;;5021713;28;20789;-85
2021/09/04 10:57:14;;;;;;;5.60;5.10;;;28.30;99.90;;;;;;5020872;28;20462;-85
2021/09/04 11:00:05;;;;;;;5.47;5.07;;;28.60;99.90;;;;;;5018618;28;20404;-86
2021/09/04 11:02:40;;;;;;;6.73;5.20;;;28.50;99.90;;;;;;5021890;28;20470;-86
2021/09/04 11:05:25;;;;;;;5.47;4.97;;;29.00;99.90;;;;;;5022022;28;20395;-85
2021/09/04 11:08:00;;;;;;;5.23;4.77;;;29.20;94.40;;;;;;5023422;28;20412;-85
2021/09/04 11:10:27;;;;;;;5.73;5.10;;;27.50;93.40;;;;;;5030406;28;20387;-85
2021/09/04 11:13:27;;;;;;;4.70;4.30;;;27.30;95.30;;;;;;5034198;28;20153;-85
2021/09/04 11:15:53;;;;;;;12.20;10.60;;;26.70;96.00;;;;;;5017241;28;20250;-85
2021/09/04 11:18:19;;;;;;;5.68;5.18;;;28.50;93.80;;;;;;5022599;28;20255;-85
2021/09/04 11:20:47;;;;;;;5.50;5.00;;;28.80;92.50;;;;;;5021764;28;20161;-86
2021/09/04 11:23:24;;;;;;;5.10;4.63;;;27.40;91.70;;;;;;5022827;28;20172;-84
2021/09/04 11:25:50;;;;;;;5.47;4.97;;;29.50;91.70;;;;;;5022871;28;20236;-84
2021/09/04 11:28:31;;;;;;;7.03;4.97;;;30.00;89.70;;;;;;5021999;28;20165;-84
2021/09/04 11:30:57;;;;;;;6.13;5.68;;;30.60;85.40;;;;;;5021532;28;20223;-84
2021/09/04 11:33:26;;;;;;;5.50;5.05;;;29.70;91.20;;;;;;5022360;28;20215;-84
2021/09/04 11:35:57;;;;;;;5.30;4.90;;;30.70;83.40;;;;;;5024239;28;20157;-84
2021/09/04 11:38:31;;;;;;;4.95;4.55;;;30.70;82.40;;;;;;5002951;28;20220;-85
2021/09/04 11:40:56;;;;;;;5.95;4.93;;;29.50;84.90;;;;;;5021466;28;20161;-85
2021/09/04 11:43:25;;;;;;;4.68;4.25;;;31.20;83.00;;;;;;5022749;28;20554;-85
2021/09/04 11:46:03;;;;;;;4.85;4.45;;;31.90;79.10;;;;;;5023007;28;20243;-85
2021/09/04 11:48:29;;;;;;;5.88;5.38;;;32.10;78.50;;;;;;5021925;28;20251;-85
2021/09/04 11:51:04;;;;;;;5.50;5.00;;;32.00;79.80;;;;;;5023241;28;20210;-85
2021/09/04 11:53:30;;;;;;;5.40;4.90;;;31.70;75.90;;;;;;5023119;28;20629;-85
2021/09/04 11:55:56;;;;;;;5.18;4.78;;;30.90;74.90;;;;;;5022015;28;20222;-85
2021/09/04 11:58:22;;;;;;;7.50;6.90;;;31.00;75.00;;;;;;5024134;28;20362;-85
2021/09/04 12:00:50;;;;;;;14.88;13.73;;;31.50;78.50;;;;;;5022525;28;20153;-86
2021/09/04 12:03:24;;;;;;;5.53;5.13;;;30.80;78.60;;;;;;5022781;28;20196;-85
2021/09/04 12:05:49;;;;;;;5.43;5.03;;;30.70;80.70;;;;;;5022755;28;20243;-85
2021/09/04 12:08:23;;;;;;;6.30;5.38;;;29.90;79.00;;;;;;5022565;28;20197;-85
2021/09/04 12:10:49;;;;;;;5.40;4.95;;;28.30;82.00;;;;;;5022828;28;20157;-84
2021/09/04 12:13:21;;;;;;;4.90;4.50;;;28.80;81.60;;;;;;5004046;28;20164;-85
2021/09/04 12:15:52;;;;;;;5.80;5.38;;;29.90;82.20;;;;;;5020273;28;20270;-85
2021/09/04 12:18:28;;;;;;;4.85;4.45;;;28.70;82.90;;;;;;5021471;28;20172;-84
2021/09/04 12:20:57;;;;;;;5.30;4.88;;;29.00;82.00;;;;;;4986758;28;20554;-84
2021/09/04 12:23:26;;;;;;;5.50;5.07;;;29.50;82.20;;;;;;5021949;28;20168;-84
2021/09/04 12:26:02;;;;;;;5.10;4.70;;;28.70;83.00;;;;;;5022551;28;20212;-85
2021/09/04 12:28:28;;;;;;;5.50;4.97;;;29.00;82.40;;;;;;5020421;28;20187;-85
2021/09/04 12:31:05;;;;;;;6.00;4.20;;;30.90;78.00;;;;;;5022418;28;20175;-85
2021/09/04 12:33:33;;;;;;;5.68;5.25;;;32.50;74.80;;;;;;4987809;28;20195;-85
2021/09/04 12:36:01;;;;;;;5.72;5.30;;;33.00;70.80;;;;;;5021428;28;20495;-85
2021/09/04 12:38:30;;;;;;;5.38;4.88;;;32.60;70.30;;;;;;5021347;28;20183;-84
2021/09/04 12:41:01;;;;;;;5.63;5.07;;;33.50;70.50;;;;;;5020386;28;20164;-85
2021/09/04 12:43:26;;;;;;;6.00;5.60;;;32.30;70.40;;;;;;5021934;28;20680;-85
2021/09/04 12:46:01;;;;;;;5.20;4.65;;;32.30;72.30;;;;;;5022674;28;20169;-84
2021/09/04 12:48:29;;;;;;;8.13;7.53;;;31.80;71.00;;;;;;5022994;28;20483;-85